sensor_id;sensor_type;location;lat;lon;timestamp;P1;durP1;ratioP1;P2;durP2;ratioP2
53525;SDS011;40551;50.478;19.378;2023-06-14T00:00:48;10.20;;;7.60;;
53525;SDS011;40551;50.478;19.378;2023-06-14T00:03:41;9.80;;;7.00;;
53525;SDS011;40551;50.478;19.378;2023-06-14T00:06:13;10.80;;;7.00;;
53525;SDS011;40551;50.478;19.378;2023-06-14T00:08:44;9.80;;;7.00;;
53525;SDS011;40551;50.478;19.378;2023-06-14T00:13:46;9.40;;;6.90;;
53525;SDS011;40551;50.478;19.378;2023-06-14T00:16:18;10.30;;;7.30;;
53525;SDS011;40551;50.478;19.378;2023-06-14T00:18:50;9.70;;;7.70;;
53525;SDS011;40551;50.478;19.378;2023-06-14T00:21:22;11.50;;;7.90;;
53525;SDS011;40551;50.478;19.378;2023-06-14T00:26:24;10.10;;;6.90;;
53525;SDS011;40551;50.478;19.378;2023-06-14T00:28:56;8.90;;;6.60;;
53525;SDS011;40551;50.478;19.378;2023-06-14T00:31:28;11.40;;;7.10;;
53525;SDS011;40551;50.478;19.378;2023-06-14T00:34:00;10.90;;;7.40;;
53525;SDS011;40551;50.478;19.378;2023-06-14T00:39:02;10.10;;;7.60;;
53525;SDS011;40551;50.478;19.378;2023-06-14T00:44:04;9.20;;;7.80;;
53525;SDS011;40551;50.478;19.378;2023-06-14T00:46:36;11.80;;;7.30;;
53525;SDS011;40551;50.478;19.378;2023-06-14T00:51:38;10.30;;;7.90;;
53525;SDS011;40551;50.478;19.378;2023-06-14T00:54:10;10.10;;;8.40;;
53525;SDS011;40551;50.478;19.378;2023-06-14T00:56:41;12.40;;;8.70;;
53525;SDS011;40551;50.478;19.378;2023-06-14T00:59:15;11.60;;;8.40;;
53525;SDS011;40551;50.478;19.378;2023-06-14T01:01:47;10.80;;;8.80;;
53525;SDS011;40551;50.478;19.378;2023-06-14T01:04:18;12.40;;;9.10;;
53525;SDS011;40551;50.478;19.378;2023-06-14T01:06:52;11.50;;;9.90;;
53525;SDS011;40551;50.478;19.378;2023-06-14T01:09:40;12.40;;;9.60;;
53525;SDS011;40551;50.478;19.378;2023-06-14T01:12:36;12.50;;;10.50;;
53525;SDS011;40551;50.478;19.378;2023-06-14T01:15:26;11.50;;;10.20;;
53525;SDS011;40551;50.478;19.378;2023-06-14T01:18:00;13.30;;;10.50;;
53525;SDS011;40551;50.478;19.378;2023-06-14T01:20:33;13.70;;;10.90;;
53525;SDS011;40551;50.478;19.378;2023-06-14T01:23:07;12.90;;;10.60;;
53525;SDS011;40551;50.478;19.378;2023-06-14T01:28:13;15.70;;;10.40;;
53525;SDS011;40551;50.478;19.378;2023-06-14T01:30:48;13.60;;;11.20;;
53525;SDS011;40551;50.478;19.378;2023-06-14T01:33:22;12.30;;;11.00;;
53525;SDS011;40551;50.478;19.378;2023-06-14T01:35:59;14.70;;;11.10;;
53525;SDS011;40551;50.478;19.378;2023-06-14T01:38:32;13.80;;;11.40;;
53525;SDS011;40551;50.478;19.378;2023-06-14T01:41:04;12.30;;;10.00;;
53525;SDS011;40551;50.478;19.378;2023-06-14T01:43:37;13.00;;;8.70;;
53525;SDS011;40551;50.478;19.378;2023-06-14T01:46:11;9.50;;;7.20;;
53525;SDS011;40551;50.478;19.378;2023-06-14T01:48:45;10.00;;;8.00;;
53525;SDS011;40551;50.478;19.378;2023-06-14T01:51:17;11.60;;;8.80;;
53525;SDS011;40551;50.478;19.378;2023-06-14T01:53:50;11.10;;;9.30;;
53525;SDS011;40551;50.478;19.378;2023-06-14T01:58:52;11.00;;;8.60;;
53525;SDS011;40551;50.478;19.378;2023-06-14T02:01:24;11.70;;;8.50;;
53525;SDS011;40551;50.478;19.378;2023-06-14T02:03:56;10.70;;;8.20;;
53525;SDS011;40551;50.478;19.378;2023-06-14T02:06:28;10.10;;;8.00;;
53525;SDS011;40551;50.478;19.378;2023-06-14T02:11:30;11.50;;;9.20;;
53525;SDS011;40551;50.478;19.378;2023-06-14T02:16:32;11.10;;;8.80;;
53525;SDS011;40551;50.478;19.378;2023-06-14T02:19:05;11.90;;;9.70;;
53525;SDS011;40551;50.478;19.378;2023-06-14T02:21:37;12.80;;;8.50;;
53525;SDS011;40551;50.478;19.378;2023-06-14T02:24:10;10.90;;;8.60;;
53525;SDS011;40551;50.478;19.378;2023-06-14T02:26:41;11.00;;;8.40;;
53525;SDS011;40551;50.478;19.378;2023-06-14T02:29:16;12.00;;;9.40;;
53525;SDS011;40551;50.478;19.378;2023-06-14T02:34:22;14.10;;;10.70;;
53525;SDS011;40551;50.478;19.378;2023-06-14T02:36:53;17.40;;;11.70;;
53525;SDS011;40551;50.478;19.378;2023-06-14T02:39:26;13.90;;;10.30;;
53525;SDS011;40551;50.478;19.378;2023-06-14T02:44:28;12.10;;;10.70;;
53525;SDS011;40551;50.478;19.378;2023-06-14T02:47:01;14.10;;;11.70;;
53525;SDS011;40551;50.478;19.378;2023-06-14T02:49:33;12.80;;;11.00;;
53525;SDS011;40551;50.478;19.378;2023-06-14T02:54:37;16.00;;;11.80;;
53525;SDS011;40551;50.478;19.378;2023-06-14T02:57:11;14.40;;;12.60;;
53525;SDS011;40551;50.478;19.378;2023-06-14T02:59:42;14.90;;;13.40;;
53525;SDS011;40551;50.478;19.378;2023-06-14T03:04:44;17.00;;;15.40;;
53525;SDS011;40551;50.478;19.378;2023-06-14T03:07:17;19.10;;;14.50;;
53525;SDS011;40551;50.478;19.378;2023-06-14T03:09:51;17.30;;;15.60;;
53525;SDS011;40551;50.478;19.378;2023-06-14T03:14:54;16.70;;;14.90;;
53525;SDS011;40551;50.478;19.378;2023-06-14T03:17:27;17.20;;;15.50;;
53525;SDS011;40551;50.478;19.378;2023-06-14T03:20:03;16.70;;;15.20;;
53525;SDS011;40551;50.478;19.378;2023-06-14T03:22:37;16.90;;;15.20;;
53525;SDS011;40551;50.478;19.378;2023-06-14T03:25:10;18.40;;;16.40;;
53525;SDS011;40551;50.478;19.378;2023-06-14T03:27:42;16.70;;;14.90;;
53525;SDS011;40551;50.478;19.378;2023-06-14T03:30:14;16.30;;;14.80;;
53525;SDS011;40551;50.478;19.378;2023-06-14T03:32:48;17.60;;;15.90;;
53525;SDS011;40551;50.478;19.378;2023-06-14T03:35:21;16.20;;;14.40;;
53525;SDS011;40551;50.478;19.378;2023-06-14T03:37:56;15.90;;;14.10;;
53525;SDS011;40551;50.478;19.378;2023-06-14T03:40:28;15.90;;;14.30;;
53525;SDS011;40551;50.478;19.378;2023-06-14T03:43:03;14.20;;;12.90;;
53525;SDS011;40551;50.478;19.378;2023-06-14T03:45:36;15.50;;;13.80;;
53525;SDS011;40551;50.478;19.378;2023-06-14T03:48:08;14.80;;;13.40;;
53525;SDS011;40551;50.478;19.378;2023-06-14T03:50:43;15.40;;;13.90;;
53525;SDS011;40551;50.478;19.378;2023-06-14T03:53:16;14.80;;;13.30;;
53525;SDS011;40551;50.478;19.378;2023-06-14T03:55:50;16.80;;;15.10;;
53525;SDS011;40551;50.478;19.378;2023-06-14T03:58:28;17.10;;;15.20;;
53525;SDS011;40551;50.478;19.378;2023-06-14T04:03:31;18.60;;;16.80;;
53525;SDS011;40551;50.478;19.378;2023-06-14T04:06:05;18.70;;;17.10;;
53525;SDS011;40551;50.478;19.378;2023-06-14T04:08:36;18.60;;;16.90;;
53525;SDS011;40551;50.478;19.378;2023-06-14T04:11:08;17.30;;;15.70;;
53525;SDS011;40551;50.478;19.378;2023-06-14T04:16:10;17.50;;;15.90;;
53525;SDS011;40551;50.478;19.378;2023-06-14T04:18:42;17.90;;;16.00;;
53525;SDS011;40551;50.478;19.378;2023-06-14T04:21:13;17.40;;;15.70;;
53525;SDS011;40551;50.478;19.378;2023-06-14T04:26:16;16.80;;;15.20;;
53525;SDS011;40551;50.478;19.378;2023-06-14T04:28:51;33.10;;;30.00;;
53525;SDS011;40551;50.478;19.378;2023-06-14T04:31:25;22.40;;;20.40;;
53525;SDS011;40551;50.478;19.378;2023-06-14T04:33:58;32.60;;;29.70;;
53525;SDS011;40551;50.478;19.378;2023-06-14T04:36:30;18.90;;;17.20;;
53525;SDS011;40551;50.478;19.378;2023-06-14T04:39:03;14.60;;;13.20;;
53525;SDS011;40551;50.478;19.378;2023-06-14T04:41:35;16.20;;;14.70;;
53525;SDS011;40551;50.478;19.378;2023-06-14T04:46:43;21.70;;;19.70;;
53525;SDS011;40551;50.478;19.378;2023-06-14T04:49:19;15.90;;;14.30;;
53525;SDS011;40551;50.478;19.378;2023-06-14T04:51:52;16.80;;;15.10;;
53525;SDS011;40551;50.478;19.378;2023-06-14T04:54:28;15.90;;;14.50;;
53525;SDS011;40551;50.478;19.378;2023-06-14T04:57:04;18.40;;;16.80;;
53525;SDS011;40551;50.478;19.378;2023-06-14T04:59:44;16.50;;;15.00;;
53525;SDS011;40551;50.478;19.378;2023-06-14T05:02:16;14.00;;;12.60;;
53525;SDS011;40551;50.478;19.378;2023-06-14T05:04:48;15.40;;;14.00;;
53525;SDS011;40551;50.478;19.378;2023-06-14T05:07:20;15.10;;;13.70;;
53525;SDS011;40551;50.478;19.378;2023-06-14T05:09:53;15.30;;;13.80;;
53525;SDS011;40551;50.478;19.378;2023-06-14T05:14:55;11.80;;;10.70;;
53525;SDS011;40551;50.478;19.378;2023-06-14T05:17:27;13.30;;;12.10;;
53525;SDS011;40551;50.478;19.378;2023-06-14T05:19:59;13.20;;;12.00;;
53525;SDS011;40551;50.478;19.378;2023-06-14T05:22:31;13.80;;;12.50;;
53525;SDS011;40551;50.478;19.378;2023-06-14T05:25:03;13.40;;;11.90;;
53525;SDS011;40551;50.478;19.378;2023-06-14T05:27:37;14.60;;;13.00;;
53525;SDS011;40551;50.478;19.378;2023-06-14T05:30:12;13.30;;;12.00;;
53525;SDS011;40551;50.478;19.378;2023-06-14T05:32:45;12.50;;;11.30;;
53525;SDS011;40551;50.478;19.378;2023-06-14T05:35:17;11.80;;;10.60;;
53525;SDS011;40551;50.478;19.378;2023-06-14T05:37:51;12.30;;;9.40;;
53525;SDS011;40551;50.478;19.378;2023-06-14T05:40:22;8.70;;;7.80;;
53525;SDS011;40551;50.478;19.378;2023-06-14T05:42:57;10.80;;;9.70;;
53525;SDS011;40551;50.478;19.378;2023-06-14T05:45:29;9.30;;;6.70;;
53525;SDS011;40551;50.478;19.378;2023-06-14T05:50:31;9.20;;;8.20;;
53525;SDS011;40551;50.478;19.378;2023-06-14T05:53:03;8.40;;;7.00;;
53525;SDS011;40551;50.478;19.378;2023-06-14T05:58:05;9.60;;;7.10;;
53525;SDS011;40551;50.478;19.378;2023-06-14T06:03:07;8.90;;;8.00;;
53525;SDS011;40551;50.478;19.378;2023-06-14T06:05:40;8.10;;;5.90;;
53525;SDS011;40551;50.478;19.378;2023-06-14T06:10:43;8.10;;;6.10;;
53525;SDS011;40551;50.478;19.378;2023-06-14T06:13:14;6.90;;;4.80;;
53525;SDS011;40551;50.478;19.378;2023-06-14T06:15:46;7.40;;;5.30;;
53525;SDS011;40551;50.478;19.378;2023-06-14T06:20:48;6.10;;;3.90;;
53525;SDS011;40551;50.478;19.378;2023-06-14T06:23:20;7.20;;;4.40;;
53525;SDS011;40551;50.478;19.378;2023-06-14T06:28:22;5.50;;;3.30;;
53525;SDS011;40551;50.478;19.378;2023-06-14T06:33:24;7.80;;;4.00;;
53525;SDS011;40551;50.478;19.378;2023-06-14T06:38:25;9.50;;;4.90;;
53525;SDS011;40551;50.478;19.378;2023-06-14T06:43:27;8.00;;;6.00;;
53525;SDS011;40551;50.478;19.378;2023-06-14T06:45:59;7.00;;;4.70;;
53525;SDS011;40551;50.478;19.378;2023-06-14T06:48:31;12.30;;;9.50;;
53525;SDS011;40551;50.478;19.378;2023-06-14T06:56:12;6.70;;;5.00;;
53525;SDS011;40551;50.478;19.378;2023-06-14T06:58:43;7.10;;;4.90;;
53525;SDS011;40551;50.478;19.378;2023-06-14T07:03:45;7.00;;;4.70;;
53525;SDS011;40551;50.478;19.378;2023-06-14T07:06:16;6.30;;;4.30;;
53525;SDS011;40551;50.478;19.378;2023-06-14T07:11:18;7.60;;;4.20;;
53525;SDS011;40551;50.478;19.378;2023-06-14T07:13:50;6.90;;;4.80;;
53525;SDS011;40551;50.478;19.378;2023-06-14T07:16:21;7.00;;;4.50;;
53525;SDS011;40551;50.478;19.378;2023-06-14T07:18:54;8.10;;;4.70;;
53525;SDS011;40551;50.478;19.378;2023-06-14T07:23:56;6.00;;;4.30;;
53525;SDS011;40551;50.478;19.378;2023-06-14T07:26:28;6.70;;;4.90;;
53525;SDS011;40551;50.478;19.378;2023-06-14T07:28:59;6.50;;;5.10;;
53525;SDS011;40551;50.478;19.378;2023-06-14T07:31:31;7.70;;;5.60;;
53525;SDS011;40551;50.478;19.378;2023-06-14T07:34:03;8.60;;;5.70;;
53525;SDS011;40551;50.478;19.378;2023-06-14T07:36:34;8.40;;;6.00;;
53525;SDS011;40551;50.478;19.378;2023-06-14T07:39:07;9.10;;;5.40;;
53525;SDS011;40551;50.478;19.378;2023-06-14T07:41:38;7.50;;;5.40;;
53525;SDS011;40551;50.478;19.378;2023-06-14T07:46:41;7.20;;;5.70;;
53525;SDS011;40551;50.478;19.378;2023-06-14T07:49:12;7.50;;;5.80;;
53525;SDS011;40551;50.478;19.378;2023-06-14T07:51:45;7.40;;;5.70;;
53525;SDS011;40551;50.478;19.378;2023-06-14T07:54:17;7.60;;;6.20;;
53525;SDS011;40551;50.478;19.378;2023-06-14T07:56:49;8.00;;;6.30;;
53525;SDS011;40551;50.478;19.378;2023-06-14T07:59:20;10.00;;;6.60;;
53525;SDS011;40551;50.478;19.378;2023-06-14T08:04:22;16.90;;;14.90;;
53525;SDS011;40551;50.478;19.378;2023-06-14T08:09:24;8.10;;;7.20;;
53525;SDS011;40551;50.478;19.378;2023-06-14T08:11:57;9.00;;;7.00;;
53525;SDS011;40551;50.478;19.378;2023-06-14T08:14:29;7.70;;;6.70;;
53525;SDS011;40551;50.478;19.378;2023-06-14T08:17:01;8.00;;;6.50;;
53525;SDS011;40551;50.478;19.378;2023-06-14T08:19:32;7.60;;;6.70;;
53525;SDS011;40551;50.478;19.378;2023-06-14T08:22:04;8.70;;;6.40;;
53525;SDS011;40551;50.478;19.378;2023-06-14T08:24:36;7.10;;;5.90;;
53525;SDS011;40551;50.478;19.378;2023-06-14T08:27:09;8.00;;;7.20;;
53525;SDS011;40551;50.478;19.378;2023-06-14T08:29:41;8.50;;;7.40;;
53525;SDS011;40551;50.478;19.378;2023-06-14T08:32:13;9.10;;;7.20;;
53525;SDS011;40551;50.478;19.378;2023-06-14T08:34:45;9.50;;;8.20;;
53525;SDS011;40551;50.478;19.378;2023-06-14T08:37:32;10.60;;;7.70;;
53525;SDS011;40551;50.478;19.378;2023-06-14T08:40:12;8.10;;;7.20;;
53525;SDS011;40551;50.478;19.378;2023-06-14T08:42:52;8.70;;;7.50;;
53525;SDS011;40551;50.478;19.378;2023-06-14T08:45:24;9.20;;;7.70;;
53525;SDS011;40551;50.478;19.378;2023-06-14T08:47:59;8.20;;;6.70;;
53525;SDS011;40551;50.478;19.378;2023-06-14T08:50:31;8.70;;;7.80;;
53525;SDS011;40551;50.478;19.378;2023-06-14T08:53:05;11.70;;;7.40;;
53525;SDS011;40551;50.478;19.378;2023-06-14T08:55:42;9.20;;;8.00;;
53525;SDS011;40551;50.478;19.378;2023-06-14T08:58:14;9.20;;;8.00;;
53525;SDS011;40551;50.478;19.378;2023-06-14T09:00:46;10.50;;;9.00;;
53525;SDS011;40551;50.478;19.378;2023-06-14T09:03:18;11.30;;;9.90;;
53525;SDS011;40551;50.478;19.378;2023-06-14T09:05:50;11.30;;;10.20;;
53525;SDS011;40551;50.478;19.378;2023-06-14T09:08:23;11.20;;;10.10;;
53525;SDS011;40551;50.478;19.378;2023-06-14T09:10:55;12.40;;;11.20;;
53525;SDS011;40551;50.478;19.378;2023-06-14T09:13:27;12.50;;;11.30;;
53525;SDS011;40551;50.478;19.378;2023-06-14T09:16:00;14.00;;;11.90;;
53525;SDS011;40551;50.478;19.378;2023-06-14T09:18:36;11.50;;;10.30;;
53525;SDS011;40551;50.478;19.378;2023-06-14T09:21:10;12.50;;;10.90;;
53525;SDS011;40551;50.478;19.378;2023-06-14T09:23:42;14.10;;;11.10;;
53525;SDS011;40551;50.478;19.378;2023-06-14T09:26:15;11.60;;;10.40;;
53525;SDS011;40551;50.478;19.378;2023-06-14T09:28:49;12.30;;;9.00;;
53525;SDS011;40551;50.478;19.378;2023-06-14T09:31:20;13.60;;;10.10;;
53525;SDS011;40551;50.478;19.378;2023-06-14T09:33:52;10.80;;;9.00;;
53525;SDS011;40551;50.478;19.378;2023-06-14T09:36:25;10.90;;;9.80;;
53525;SDS011;40551;50.478;19.378;2023-06-14T09:38:58;9.40;;;7.70;;
53525;SDS011;40551;50.478;19.378;2023-06-14T09:41:33;12.20;;;10.30;;
53525;SDS011;40551;50.478;19.378;2023-06-14T09:44:07;10.40;;;9.40;;
53525;SDS011;40551;50.478;19.378;2023-06-14T09:46:48;11.70;;;9.40;;
53525;SDS011;40551;50.478;19.378;2023-06-14T09:49:20;10.80;;;9.70;;
53525;SDS011;40551;50.478;19.378;2023-06-14T09:51:54;16.00;;;13.10;;
53525;SDS011;40551;50.478;19.378;2023-06-14T09:54:28;16.90;;;15.00;;
53525;SDS011;40551;50.478;19.378;2023-06-14T09:57:01;43.90;;;32.10;;
53525;SDS011;40551;50.478;19.378;2023-06-14T09:59:37;30.10;;;24.20;;
53525;SDS011;40551;50.478;19.378;2023-06-14T10:02:14;32.00;;;26.00;;
53525;SDS011;40551;50.478;19.378;2023-06-14T10:04:53;23.60;;;18.30;;
53525;SDS011;40551;50.478;19.378;2023-06-14T10:07:30;16.80;;;12.60;;
53525;SDS011;40551;50.478;19.378;2023-06-14T10:10:10;24.00;;;14.60;;
53525;SDS011;40551;50.478;19.378;2023-06-14T10:12:43;13.90;;;11.00;;
53525;SDS011;40551;50.478;19.378;2023-06-14T10:15:15;11.20;;;9.20;;
53525;SDS011;40551;50.478;19.378;2023-06-14T10:17:52;9.10;;;7.20;;
53525;SDS011;40551;50.478;19.378;2023-06-14T10:20:29;8.70;;;7.50;;
53525;SDS011;40551;50.478;19.378;2023-06-14T10:23:08;8.30;;;6.10;;
53525;SDS011;40551;50.478;19.378;2023-06-14T10:25:49;7.60;;;5.90;;
53525;SDS011;40551;50.478;19.378;2023-06-14T10:28:25;7.60;;;5.60;;
53525;SDS011;40551;50.478;19.378;2023-06-14T10:31:02;8.50;;;5.40;;
53525;SDS011;40551;50.478;19.378;2023-06-14T10:33:36;7.30;;;5.30;;
53525;SDS011;40551;50.478;19.378;2023-06-14T10:36:27;8.30;;;4.90;;
53525;SDS011;40551;50.478;19.378;2023-06-14T10:39:07;6.80;;;5.20;;
53525;SDS011;40551;50.478;19.378;2023-06-14T10:41:41;7.50;;;5.80;;
53525;SDS011;40551;50.478;19.378;2023-06-14T10:47:30;8.00;;;6.10;;
53525;SDS011;40551;50.478;19.378;2023-06-14T10:50:06;8.10;;;6.10;;
53525;SDS011;40551;50.478;19.378;2023-06-14T10:52:49;7.50;;;6.30;;
53525;SDS011;40551;50.478;19.378;2023-06-14T10:57:54;8.40;;;5.80;;
53525;SDS011;40551;50.478;19.378;2023-06-14T11:00:27;8.70;;;6.10;;
53525;SDS011;40551;50.478;19.378;2023-06-14T11:06:14;9.50;;;7.10;;
53525;SDS011;40551;50.478;19.378;2023-06-14T11:11:55;9.60;;;6.70;;
53525;SDS011;40551;50.478;19.378;2023-06-14T11:14:30;9.50;;;7.10;;
53525;SDS011;40551;50.478;19.378;2023-06-14T11:17:02;8.70;;;7.10;;
53525;SDS011;40551;50.478;19.378;2023-06-14T11:19:36;10.50;;;6.70;;
53525;SDS011;40551;50.478;19.378;2023-06-14T11:22:08;8.50;;;7.10;;
53525;SDS011;40551;50.478;19.378;2023-06-14T11:27:10;8.90;;;7.10;;
53525;SDS011;40551;50.478;19.378;2023-06-14T11:29:48;9.10;;;7.10;;
53525;SDS011;40551;50.478;19.378;2023-06-14T11:32:20;11.80;;;7.50;;
53525;SDS011;40551;50.478;19.378;2023-06-14T11:34:54;9.50;;;8.40;;
53525;SDS011;40551;50.478;19.378;2023-06-14T11:37:27;11.40;;;8.00;;
53525;SDS011;40551;50.478;19.378;2023-06-14T11:40:00;10.60;;;8.00;;
53525;SDS011;40551;50.478;19.378;2023-06-14T11:42:32;13.70;;;9.20;;
53525;SDS011;40551;50.478;19.378;2023-06-14T11:45:06;12.40;;;9.30;;
53525;SDS011;40551;50.478;19.378;2023-06-14T11:47:41;10.40;;;8.40;;
53525;SDS011;40551;50.478;19.378;2023-06-14T11:50:12;10.60;;;8.00;;
53525;SDS011;40551;50.478;19.378;2023-06-14T11:52:51;10.10;;;8.40;;
53525;SDS011;40551;50.478;19.378;2023-06-14T11:55:24;11.60;;;8.50;;
53525;SDS011;40551;50.478;19.378;2023-06-14T11:57:56;11.00;;;9.30;;
53525;SDS011;40551;50.478;19.378;2023-06-14T12:00:28;11.60;;;8.90;;
53525;SDS011;40551;50.478;19.378;2023-06-14T12:03:00;12.60;;;9.00;;
53525;SDS011;40551;50.478;19.378;2023-06-14T12:05:32;13.10;;;9.20;;
53525;SDS011;40551;50.478;19.378;2023-06-14T12:08:04;9.80;;;8.30;;
53525;SDS011;40551;50.478;19.378;2023-06-14T12:10:43;12.20;;;9.30;;
53525;SDS011;40551;50.478;19.378;2023-06-14T12:13:16;11.50;;;8.70;;
53525;SDS011;40551;50.478;19.378;2023-06-14T12:15:54;10.80;;;7.90;;
53525;SDS011;40551;50.478;19.378;2023-06-14T12:18:35;12.00;;;9.00;;
53525;SDS011;40551;50.478;19.378;2023-06-14T12:21:08;10.30;;;7.90;;
53525;SDS011;40551;50.478;19.378;2023-06-14T12:23:44;23.10;;;20.90;;
53525;SDS011;40551;50.478;19.378;2023-06-14T12:26:20;36.90;;;33.50;;
53525;SDS011;40551;50.478;19.378;2023-06-14T12:28:55;19.80;;;17.90;;
53525;SDS011;40551;50.478;19.378;2023-06-14T12:31:29;15.90;;;12.90;;
53525;SDS011;40551;50.478;19.378;2023-06-14T12:34:01;10.00;;;8.70;;
53525;SDS011;40551;50.478;19.378;2023-06-14T12:36:33;11.00;;;9.70;;
53525;SDS011;40551;50.478;19.378;2023-06-14T12:39:11;18.30;;;14.00;;
53525;SDS011;40551;50.478;19.378;2023-06-14T12:41:43;16.40;;;12.70;;
53525;SDS011;40551;50.478;19.378;2023-06-14T12:44:15;11.60;;;9.60;;
53525;SDS011;40551;50.478;19.378;2023-06-14T12:46:46;10.90;;;9.30;;
53525;SDS011;40551;50.478;19.378;2023-06-14T12:49:20;9.80;;;7.90;;
53525;SDS011;40551;50.478;19.378;2023-06-14T12:51:51;9.30;;;7.70;;
53525;SDS011;40551;50.478;19.378;2023-06-14T12:54:23;9.30;;;7.60;;
53525;SDS011;40551;50.478;19.378;2023-06-14T12:57:09;8.90;;;7.20;;
53525;SDS011;40551;50.478;19.378;2023-06-14T12:59:40;10.90;;;8.20;;
53525;SDS011;40551;50.478;19.378;2023-06-14T13:02:14;9.80;;;8.00;;
53525;SDS011;40551;50.478;19.378;2023-06-14T13:04:49;10.80;;;8.30;;
53525;SDS011;40551;50.478;19.378;2023-06-14T13:07:21;10.70;;;8.20;;
53525;SDS011;40551;50.478;19.378;2023-06-14T13:09:53;13.20;;;9.40;;
53525;SDS011;40551;50.478;19.378;2023-06-14T13:12:24;11.80;;;9.10;;
53525;SDS011;40551;50.478;19.378;2023-06-14T13:14:56;11.10;;;9.30;;
53525;SDS011;40551;50.478;19.378;2023-06-14T13:17:27;12.10;;;9.00;;
53525;SDS011;40551;50.478;19.378;2023-06-14T13:20:02;10.10;;;9.00;;
53525;SDS011;40551;50.478;19.378;2023-06-14T13:22:34;16.20;;;12.20;;
53525;SDS011;40551;50.478;19.378;2023-06-14T13:25:06;10.40;;;8.70;;
53525;SDS011;40551;50.478;19.378;2023-06-14T13:27:39;9.30;;;7.50;;
53525;SDS011;40551;50.478;19.378;2023-06-14T13:30:12;10.00;;;8.20;;
53525;SDS011;40551;50.478;19.378;2023-06-14T13:32:44;17.30;;;10.10;;
53525;SDS011;40551;50.478;19.378;2023-06-14T13:35:18;16.90;;;10.70;;
53525;SDS011;40551;50.478;19.378;2023-06-14T13:37:50;11.70;;;9.30;;
53525;SDS011;40551;50.478;19.378;2023-06-14T13:40:22;11.80;;;9.20;;
53525;SDS011;40551;50.478;19.378;2023-06-14T13:42:53;11.30;;;8.20;;
53525;SDS011;40551;50.478;19.378;2023-06-14T13:45:25;9.20;;;7.70;;
53525;SDS011;40551;50.478;19.378;2023-06-14T13:47:57;10.00;;;8.10;;
53525;SDS011;40551;50.478;19.378;2023-06-14T13:50:29;8.20;;;6.50;;
53525;SDS011;40551;50.478;19.378;2023-06-14T13:53:01;11.40;;;8.10;;
53525;SDS011;40551;50.478;19.378;2023-06-14T13:55:32;9.20;;;7.50;;
53525;SDS011;40551;50.478;19.378;2023-06-14T13:58:04;8.90;;;7.60;;
53525;SDS011;40551;50.478;19.378;2023-06-14T14:00:35;9.80;;;7.20;;
53525;SDS011;40551;50.478;19.378;2023-06-14T14:03:09;10.60;;;7.10;;
53525;SDS011;40551;50.478;19.378;2023-06-14T14:05:40;10.70;;;7.90;;
53525;SDS011;40551;50.478;19.378;2023-06-14T14:08:12;9.20;;;7.30;;
53525;SDS011;40551;50.478;19.378;2023-06-14T14:10:44;8.50;;;7.10;;
53525;SDS011;40551;50.478;19.378;2023-06-14T14:13:16;9.90;;;7.60;;
53525;SDS011;40551;50.478;19.378;2023-06-14T14:15:48;9.90;;;7.20;;
53525;SDS011;40551;50.478;19.378;2023-06-14T14:18:20;9.10;;;7.80;;
53525;SDS011;40551;50.478;19.378;2023-06-14T14:20:51;9.60;;;7.90;;
53525;SDS011;40551;50.478;19.378;2023-06-14T14:23:23;10.40;;;8.30;;
53525;SDS011;40551;50.478;19.378;2023-06-14T14:25:55;9.10;;;7.60;;
53525;SDS011;40551;50.478;19.378;2023-06-14T14:28:27;10.90;;;8.10;;
53525;SDS011;40551;50.478;19.378;2023-06-14T14:30:58;9.80;;;7.20;;
53525;SDS011;40551;50.478;19.378;2023-06-14T14:33:31;9.70;;;7.70;;
53525;SDS011;40551;50.478;19.378;2023-06-14T14:36:05;9.90;;;6.40;;
53525;SDS011;40551;50.478;19.378;2023-06-14T14:38:37;9.00;;;6.40;;
53525;SDS011;40551;50.478;19.378;2023-06-14T14:41:08;8.70;;;6.30;;
53525;SDS011;40551;50.478;19.378;2023-06-14T14:43:40;8.60;;;6.20;;
53525;SDS011;40551;50.478;19.378;2023-06-14T14:46:11;9.20;;;7.00;;
53525;SDS011;40551;50.478;19.378;2023-06-14T14:48:45;8.80;;;6.80;;
53525;SDS011;40551;50.478;19.378;2023-06-14T14:51:17;11.20;;;8.00;;
53525;SDS011;40551;50.478;19.378;2023-06-14T14:53:49;10.50;;;7.80;;
53525;SDS011;40551;50.478;19.378;2023-06-14T14:56:24;9.10;;;7.10;;
53525;SDS011;40551;50.478;19.378;2023-06-14T14:58:56;8.90;;;6.80;;
53525;SDS011;40551;50.478;19.378;2023-06-14T15:01:27;9.20;;;6.70;;
53525;SDS011;40551;50.478;19.378;2023-06-14T15:03:59;8.50;;;6.70;;
53525;SDS011;40551;50.478;19.378;2023-06-14T15:06:31;9.60;;;6.70;;
53525;SDS011;40551;50.478;19.378;2023-06-14T15:09:07;11.60;;;6.40;;
53525;SDS011;40551;50.478;19.378;2023-06-14T15:11:39;10.40;;;6.50;;
53525;SDS011;40551;50.478;19.378;2023-06-14T15:14:12;8.90;;;6.80;;
53525;SDS011;40551;50.478;19.378;2023-06-14T15:16:44;9.60;;;6.60;;
53525;SDS011;40551;50.478;19.378;2023-06-14T15:19:17;9.50;;;7.20;;
53525;SDS011;40551;50.478;19.378;2023-06-14T15:21:49;9.90;;;7.20;;
53525;SDS011;40551;50.478;19.378;2023-06-14T15:24:20;9.50;;;7.00;;
53525;SDS011;40551;50.478;19.378;2023-06-14T15:27:10;13.20;;;7.40;;
53525;SDS011;40551;50.478;19.378;2023-06-14T15:29:42;10.80;;;7.20;;
53525;SDS011;40551;50.478;19.378;2023-06-14T15:32:17;10.20;;;7.70;;
53525;SDS011;40551;50.478;19.378;2023-06-14T15:34:49;9.20;;;7.00;;
53525;SDS011;40551;50.478;19.378;2023-06-14T15:37:20;9.10;;;6.90;;
53525;SDS011;40551;50.478;19.378;2023-06-14T15:39:52;9.70;;;7.40;;
53525;SDS011;40551;50.478;19.378;2023-06-14T15:42:24;8.90;;;7.50;;
53525;SDS011;40551;50.478;19.378;2023-06-14T15:44:55;12.60;;;9.90;;
53525;SDS011;40551;50.478;19.378;2023-06-14T15:47:27;14.90;;;12.80;;
53525;SDS011;40551;50.478;19.378;2023-06-14T15:49:59;10.10;;;7.30;;
53525;SDS011;40551;50.478;19.378;2023-06-14T15:52:33;8.30;;;7.30;;
53525;SDS011;40551;50.478;19.378;2023-06-14T15:55:05;9.60;;;5.80;;
53525;SDS011;40551;50.478;19.378;2023-06-14T15:57:38;8.50;;;6.90;;
53525;SDS011;40551;50.478;19.378;2023-06-14T16:00:10;9.20;;;6.60;;
53525;SDS011;40551;50.478;19.378;2023-06-14T16:02:44;11.60;;;10.40;;
53525;SDS011;40551;50.478;19.378;2023-06-14T16:05:16;11.00;;;7.60;;
53525;SDS011;40551;50.478;19.378;2023-06-14T16:07:48;10.90;;;8.90;;
53525;SDS011;40551;50.478;19.378;2023-06-14T16:10:19;10.90;;;7.70;;
53525;SDS011;40551;50.478;19.378;2023-06-14T16:12:51;10.30;;;7.40;;
53525;SDS011;40551;50.478;19.378;2023-06-14T16:15:23;13.00;;;7.10;;
53525;SDS011;40551;50.478;19.378;2023-06-14T16:17:54;12.40;;;10.10;;
53525;SDS011;40551;50.478;19.378;2023-06-14T16:20:27;10.40;;;8.60;;
53525;SDS011;40551;50.478;19.378;2023-06-14T16:22:59;12.20;;;8.60;;
53525;SDS011;40551;50.478;19.378;2023-06-14T16:25:30;11.40;;;8.70;;
53525;SDS011;40551;50.478;19.378;2023-06-14T16:28:02;13.30;;;10.50;;
53525;SDS011;40551;50.478;19.378;2023-06-14T16:30:35;17.90;;;15.70;;
53525;SDS011;40551;50.478;19.378;2023-06-14T16:33:07;12.80;;;10.50;;
53525;SDS011;40551;50.478;19.378;2023-06-14T16:35:38;13.50;;;10.20;;
53525;SDS011;40551;50.478;19.378;2023-06-14T16:38:10;13.60;;;10.10;;
53525;SDS011;40551;50.478;19.378;2023-06-14T16:40:42;15.00;;;9.90;;
53525;SDS011;40551;50.478;19.378;2023-06-14T16:43:13;15.90;;;12.50;;